createdAt,value
2023-10-05T00:00:21.266Z,24.50
2023-10-05T00:05:25.224Z,24.60
2023-10-05T00:10:31.202Z,24.70
2023-10-05T00:15:37.711Z,24.70
2023-10-05T00:20:42.428Z,24.70
2023-10-05T00:25:47.283Z,24.70
2023-10-05T00:30:51.906Z,24.80
2023-10-05T00:35:55.481Z,24.70
2023-10-05T00:41:09.553Z,24.80
2023-10-05T00:46:13.794Z,24.70
2023-10-05T00:51:24.876Z,24.70
2023-10-05T00:56:35.155Z,24.60
2023-10-05T01:01:59.382Z,24.60
2023-10-05T01:07:19.344Z,24.50
2023-10-05T01:12:38.101Z,24.50
2023-10-05T01:17:41.744Z,24.50
2023-10-05T01:22:46.318Z,24.50
2023-10-05T01:27:52.582Z,24.40
2023-10-05T01:32:56.314Z,24.40
2023-10-05T01:38:01.043Z,24.40
2023-10-05T01:43:06.774Z,24.40
2023-10-05T01:48:14.029Z,24.40
2023-10-05T01:53:18.529Z,24.40
2023-10-05T01:58:27.141Z,24.30
2023-10-05T02:03:30.665Z,24.20
2023-10-05T02:08:37.091Z,24.20
2023-10-05T02:13:42.369Z,24.10
2023-10-05T02:18:46.041Z,24.00
2023-10-05T02:23:52.898Z,23.90
2023-10-05T02:28:58.175Z,23.90
2023-10-05T02:34:02.393Z,23.90
2023-10-05T02:39:10.107Z,23.80
2023-10-05T02:44:24.581Z,23.70
2023-10-05T02:49:28.311Z,23.60
2023-10-05T02:54:32.414Z,23.60
2023-10-05T02:59:37.288Z,23.60
2023-10-05T03:04:57.275Z,23.50
2023-10-05T03:10:02.174Z,23.50
2023-10-05T03:15:15.340Z,23.50
2023-10-05T03:20:23.362Z,23.60
2023-10-05T03:25:27.575Z,23.60
2023-10-05T03:30:36.765Z,23.60
2023-10-05T03:35:46.437Z,23.60
2023-10-05T03:40:50.510Z,23.60
2023-10-05T03:45:56.669Z,23.60
2023-10-05T03:51:01.353Z,23.60
2023-10-05T03:56:05.048Z,23.60
2023-10-05T04:01:13.158Z,23.60
2023-10-05T04:06:21.626Z,23.40
2023-10-05T04:11:27.753Z,23.40
2023-10-05T04:16:35.657Z,23.30
2023-10-05T04:21:41.631Z,23.20
2023-10-05T04:26:47.247Z,23.00
2023-10-05T04:31:53.343Z,22.90
2023-10-05T04:36:56.942Z,22.90
2023-10-05T04:42:07.311Z,22.80
2023-10-05T04:47:12.112Z,22.60
2023-10-05T04:52:20.845Z,22.60
2023-10-05T04:57:36.446Z,22.60
2023-10-05T05:03:06.502Z,22.60
2023-10-05T05:08:10.949Z,22.60
2023-10-05T05:13:14.607Z,22.60
2023-10-05T05:18:20.626Z,22.50
2023-10-05T05:23:24.140Z,22.40
2023-10-05T05:28:27.814Z,22.40
2023-10-05T05:33:33.025Z,22.30
2023-10-05T05:38:36.656Z,22.30
2023-10-05T05:43:41.879Z,22.30
2023-10-05T05:48:50.412Z,22.30
2023-10-05T05:53:54.244Z,22.30
2023-10-05T05:58:57.732Z,22.50
2023-10-05T06:04:02.568Z,22.90
2023-10-05T06:09:08.820Z,23.30
2023-10-05T06:14:12.930Z,23.60
2023-10-05T06:19:18.139Z,23.70
2023-10-05T06:24:21.592Z,23.80
2023-10-05T06:29:26.273Z,23.70
2023-10-05T06:34:31.220Z,23.60
2023-10-05T06:39:34.742Z,23.60
2023-10-05T06:44:38.234Z,23.50
2023-10-05T06:49:43.755Z,23.50
2023-10-05T06:54:47.114Z,23.40
2023-10-05T06:59:50.687Z,23.50
2023-10-05T07:04:55.723Z,23.60
2023-10-05T07:09:59.300Z,23.60
2023-10-05T07:15:03.475Z,23.70
2023-10-05T07:20:12.798Z,23.70
2023-10-05T07:25:18.627Z,23.70
2023-10-05T07:30:22.356Z,23.80
2023-10-05T07:35:27.137Z,23.80
2023-10-05T07:40:30.805Z,23.80
2023-10-05T07:45:34.585Z,23.80
2023-10-05T07:50:39.582Z,23.90
2023-10-05T07:55:43.070Z,23.90
2023-10-05T08:00:47.163Z,24.00
2023-10-05T08:05:52.183Z,24.00
2023-10-05T08:10:55.959Z,24.10
2023-10-05T08:15:59.521Z,24.20
2023-10-05T08:21:05.634Z,24.30
2023-10-05T08:26:15.696Z,24.40
2023-10-05T08:31:24.451Z,24.40
2023-10-05T08:36:29.593Z,24.60
2023-10-05T08:41:36.612Z,24.70
2023-10-05T08:46:43.588Z,24.90
2023-10-05T08:52:02.105Z,25.00
2023-10-05T08:57:11.762Z,25.10
2023-10-05T09:02:20.296Z,25.30
2023-10-05T09:07:37.363Z,25.40
2023-10-05T09:12:43.252Z,25.60
2023-10-05T09:18:18.486Z,25.70
2023-10-05T09:23:33.512Z,26.00
2023-10-05T09:28:46.670Z,26.20
2023-10-05T09:33:54.666Z,26.30
2023-10-05T09:39:04.570Z,26.50
2023-10-05T09:44:10.936Z,26.80
2023-10-05T09:49:18.897Z,26.90
2023-10-05T09:54:28.354Z,27.10
2023-10-05T09:59:34.217Z,27.30
2023-10-05T10:04:38.970Z,27.50
2023-10-05T10:09:47.948Z,27.70
2023-10-05T10:14:52.795Z,28.00
2023-10-05T10:20:17.497Z,28.10
2023-10-05T10:25:32.820Z,28.30
2023-10-05T10:30:37.653Z,28.50
2023-10-05T10:35:44.178Z,28.70
2023-10-05T10:41:08.470Z,28.90
2023-10-05T10:46:22.045Z,29.10
2023-10-05T10:51:28.904Z,29.30
2023-10-05T10:56:43.121Z,29.50
2023-10-05T11:01:54.341Z,29.70
2023-10-05T11:07:06.828Z,29.90
2023-10-05T11:12:12.993Z,30.10
2023-10-05T11:17:36.768Z,30.20
2023-10-05T11:22:43.838Z,30.50
2023-10-05T11:27:56.591Z,30.70
2023-10-05T11:33:26.610Z,30.90
2023-10-05T11:38:29.843Z,31.10
2023-10-05T11:43:38.670Z,31.30
2023-10-05T11:48:49.446Z,31.50
2023-10-05T11:53:56.644Z,31.60
2023-10-05T11:59:02.170Z,31.70
2023-10-05T12:04:08.589Z,31.80
2023-10-05T12:09:28.436Z,31.80
2023-10-05T12:14:34.645Z,31.80
2023-10-05T12:19:39.358Z,31.60
2023-10-05T12:24:43.232Z,31.60
2023-10-05T12:29:48.153Z,31.50
2023-10-05T12:34:52.673Z,31.50
2023-10-05T12:39:56.070Z,31.40
2023-10-05T12:45:05.755Z,31.40
2023-10-05T12:50:09.756Z,31.40
2023-10-05T12:55:13.245Z,31.20
2023-10-05T13:00:23.208Z,31.10
2023-10-05T13:05:33.575Z,31.00
2023-10-05T13:10:39.100Z,30.90
2023-10-05T13:15:44.246Z,30.80
2023-10-05T13:20:49.594Z,30.70
2023-10-05T13:25:54.503Z,30.50
2023-10-05T13:31:00.774Z,30.50
2023-10-05T13:36:08.967Z,30.30
2023-10-05T13:41:20.250Z,30.20
2023-10-05T13:46:36.906Z,30.00
2023-10-05T13:51:40.811Z,29.90
2023-10-05T13:56:44.895Z,29.80
2023-10-05T14:01:54.583Z,29.70
2023-10-05T14:07:00.380Z,29.60
2023-10-05T14:12:04.665Z,29.50
2023-10-05T14:17:09.410Z,29.40
2023-10-05T14:22:14.320Z,29.20
2023-10-05T14:27:17.684Z,29.00
2023-10-05T14:32:24.958Z,28.80
2023-10-05T14:37:28.376Z,28.70
2023-10-05T14:42:32.407Z,28.60
2023-10-05T14:47:37.306Z,28.60
2023-10-05T14:52:43.993Z,28.60
2023-10-05T14:57:47.790Z,28.70
2023-10-05T15:02:54.352Z,28.70
2023-10-05T15:08:00.054Z,28.70
2023-10-05T15:13:03.542Z,28.70
2023-10-05T15:18:10.648Z,28.70
2023-10-05T15:23:14.018Z,28.50
2023-10-05T15:28:20.296Z,28.40
2023-10-05T15:33:28.258Z,28.30
2023-10-05T15:38:35.201Z,28.30
2023-10-05T15:43:38.959Z,28.20
2023-10-05T15:48:43.957Z,28.20
2023-10-05T15:53:53.218Z,28.10
2023-10-05T15:58:56.827Z,28.10
2023-10-05T16:04:05.181Z,28.00
2023-10-05T16:09:09.052Z,28.00
2023-10-05T16:14:12.592Z,27.90
2023-10-05T16:19:17.567Z,27.80
2023-10-05T16:24:21.253Z,27.80
2023-10-05T16:29:24.646Z,27.80
2023-10-05T16:34:30.283Z,27.70
2023-10-05T16:39:33.845Z,27.70
2023-10-05T16:44:37.447Z,27.70
2023-10-05T16:49:44.149Z,27.50
2023-10-05T16:54:49.059Z,27.40
2023-10-05T16:59:55.331Z,27.30
2023-10-05T17:05:07.552Z,27.20
2023-10-05T17:10:12.057Z,27.30
2023-10-05T17:15:18.044Z,27.20
2023-10-05T17:20:25.113Z,27.20
2023-10-05T17:25:30.412Z,27.20
2023-10-05T17:30:34.490Z,27.10
2023-10-05T17:35:44.626Z,27.10
2023-10-05T17:40:57.049Z,27.10
2023-10-05T17:46:02.740Z,27.10
2023-10-05T17:51:09.133Z,27.10
2023-10-05T17:56:14.559Z,27.00
2023-10-05T18:01:20.812Z,27.00
2023-10-05T18:06:27.475Z,26.90
2023-10-05T18:11:31.940Z,26.90
2023-10-05T18:16:38.799Z,26.80
2023-10-05T18:21:46.139Z,26.80
2023-10-05T18:26:52.914Z,26.60
2023-10-05T18:31:57.598Z,26.60
2023-10-05T18:37:05.051Z,26.50
2023-10-05T18:42:10.112Z,26.50
2023-10-05T18:47:15.984Z,26.40
2023-10-05T18:52:24.700Z,26.30
2023-10-05T18:57:31.683Z,26.20
2023-10-05T19:02:37.583Z,26.20
2023-10-05T19:07:47.273Z,26.20
2023-10-05T19:12:53.526Z,26.20
2023-10-05T19:18:00.277Z,26.10
2023-10-05T19:23:07.944Z,26.10
2023-10-05T19:28:13.697Z,26.00
2023-10-05T19:33:21.703Z,26.00
2023-10-05T19:38:29.016Z,25.90
2023-10-05T19:43:34.046Z,25.90
2023-10-05T19:48:38.465Z,25.80
2023-10-05T19:53:46.088Z,25.70
2023-10-05T19:58:50.187Z,25.60
2023-10-05T20:03:54.584Z,25.50
2023-10-05T20:09:01.364Z,25.40
2023-10-05T20:14:10.254Z,25.40
2023-10-05T20:19:16.830Z,25.30
2023-10-05T20:24:26.293Z,25.20
2023-10-05T20:29:31.777Z,25.10
2023-10-05T20:34:35.549Z,25.10
2023-10-05T20:39:40.492Z,25.10
2023-10-05T20:44:43.972Z,25.10
2023-10-05T20:49:47.420Z,25.20
2023-10-05T20:54:54.067Z,25.20
2023-10-05T20:59:57.587Z,25.20
2023-10-05T21:05:01.359Z,25.20
2023-10-05T21:10:07.451Z,25.30
2023-10-05T21:15:12.928Z,25.30
2023-10-05T21:20:16.465Z,25.30
2023-10-05T21:25:21.353Z,25.30
2023-10-05T21:30:24.718Z,25.20
2023-10-05T21:35:28.195Z,25.20
2023-10-05T21:40:33.466Z,25.20
2023-10-05T21:45:36.940Z,25.10
2023-10-05T21:50:40.273Z,25.00
2023-10-05T21:55:45.457Z,25.00
2023-10-05T22:00:54.557Z,25.00
2023-10-05T22:05:58.086Z,24.90
2023-10-05T22:11:04.568Z,24.90
2023-10-05T22:16:08.042Z,24.80
2023-10-05T22:21:11.617Z,24.70
2023-10-05T22:26:17.625Z,24.60
2023-10-05T22:31:21.143Z,24.60
2023-10-05T22:36:24.626Z,24.50
2023-10-05T22:41:29.408Z,24.40
2023-10-05T22:46:32.841Z,24.40
2023-10-05T22:51:36.248Z,24.40
2023-10-05T22:56:44.690Z,24.30
2023-10-05T23:01:48.843Z,24.30
2023-10-05T23:06:52.476Z,24.30
2023-10-05T23:11:57.360Z,24.30
2023-10-05T23:17:00.762Z,24.30
2023-10-05T23:22:05.445Z,24.20
2023-10-05T23:27:13.572Z,24.20
2023-10-05T23:32:17.379Z,24.10
2023-10-05T23:37:22.197Z,24.10
2023-10-05T23:42:32.061Z,24.10
2023-10-05T23:47:37.736Z,24.00
2023-10-05T23:52:41.432Z,24.00
2023-10-05T23:57:46.536Z,23.90
